Time;durP1;ratioP1;P1;durP2;ratioP2;P2;SDS_P1;SDS_P2;PMS_P1;PMS_P2;Temp;Humidity;BMP_temperature;BMP_pressure;BME280_temperature;BME280_humidity;BME280_pressure;Samples;Min_cycle;Max_cycle;Signal;HPM_P1;HPM_P2
2023/09/20 00:01:38;;;;;;;9.13;4.63;;;;;;;22.85;53.35;100851.31;4984055;28;20472;-34
2023/09/20 00:04:06;;;;;;;9.07;4.72;;;;;;;22.84;53.55;100847.78;5014680;28;20054;-34
2023/09/20 00:06:32;;;;;;;8.93;4.70;;;;;;;22.84;53.40;100844.22;4984054;28;20090;-34
2023/09/20 00:09:00;;;;;;;10.40;4.28;;;;;;;22.84;53.65;100844.22;4982810;28;20046;-34
2023/09/20 00:11:26;;;;;;;11.27;4.93;;;;;;;22.86;53.17;100855.69;4984392;28;20069;-34
2023/09/20 00:13:53;;;;;;;8.30;4.35;;;;;;;22.85;53.61;100848.59;4984227;28;20093;-34
2023/09/20 00:16:20;;;;;;;9.15;4.07;;;;;;;22.84;53.55;100834.25;4982171;28;20150;-34
2023/09/20 00:18:47;;;;;;;6.88;4.10;;;;;;;22.84;53.59;100850.47;4984280;28;20058;-34
2023/09/20 00:21:14;;;;;;;9.20;4.03;;;;;;;22.83;53.46;100840.66;4981867;28;20485;-34
2023/09/20 00:23:42;;;;;;;8.55;3.88;;;;;;;22.85;53.59;100857.53;4989015;28;20072;-34
2023/09/20 00:26:10;;;;;;;8.10;4.35;;;;;;;22.84;53.81;100852.34;4988523;28;20046;-34
2023/09/20 00:28:38;;;;;;;9.80;4.25;;;;;;;22.84;53.78;100849.63;4983180;28;20564;-34
2023/09/20 00:31:05;;;;;;;8.30;4.38;;;;;;;22.83;53.66;100851.47;4985011;28;20137;-34
2023/09/20 00:33:32;;;;;;;8.05;4.22;;;;;;;22.84;53.49;100846.94;4986298;28;20141;-34
2023/09/20 00:35:59;;;;;;;7.72;3.95;;;;;;;22.83;53.41;100837.13;4983032;28;20042;-34
2023/09/20 00:38:25;;;;;;;6.57;3.78;;;;;;;22.83;53.68;100842.53;4986056;28;20049;-34
2023/09/20 00:40:52;;;;;;;7.13;4.40;;;;;;;22.82;53.49;100835.44;4981604;28;20110;-34
2023/09/20 00:43:23;;;;;;;9.38;3.70;;;;;;;22.82;53.95;100835.44;4981513;28;20478;-34
2023/09/20 00:45:50;;;;;;;11.35;4.13;;;;;;;22.81;53.51;100837.31;4982504;28;20078;-34
2023/09/20 00:48:18;;;;;;;8.65;4.32;;;;;;;22.81;53.70;100833.78;4984841;28;20065;-34
2023/09/20 00:50:45;;;;;;;8.30;4.03;;;;;;;22.80;53.71;100832.13;4985659;28;20498;-34
2023/09/20 00:53:13;;;;;;;8.18;3.75;;;;;;;22.80;53.70;100832.13;4982512;28;20054;-34
2023/09/20 00:55:42;;;;;;;8.05;3.60;;;;;;;22.78;53.97;100823.34;4988266;28;20450;-34
2023/09/20 00:58:17;;;;;;;7.78;4.40;;;;;;;22.78;53.75;100826.03;4986440;28;20047;-34
2023/09/20 01:00:45;;;;;;;8.77;4.00;;;;;;;22.78;53.75;100823.34;4983096;28;20050;-34
2023/09/20 01:03:17;;;;;;;10.13;4.15;;;;;;;22.77;53.88;100832.47;4982153;28;20062;-34
2023/09/20 01:05:47;;;;;;;10.15;4.20;;;;;;;22.77;54.15;100827.06;4985861;28;20078;-34
2023/09/20 01:08:17;;;;;;;6.53;3.88;;;;;;;22.76;53.50;100836.22;5014032;28;20423;-34
2023/09/20 01:10:45;;;;;;;6.47;3.78;;;;;;;22.76;54.19;100833.50;4987889;28;20058;-34
2023/09/20 01:13:15;;;;;;;9.43;4.40;;;;;;;22.76;53.94;100833.50;4990919;28;20054;-34
2023/09/20 01:15:43;;;;;;;7.13;4.03;;;;;;;22.75;54.13;100829.09;4990057;28;20047;-34
2023/09/20 01:18:09;;;;;;;6.50;4.05;;;;;;;22.75;54.18;100835.34;4989708;28;20097;-34
2023/09/20 01:20:39;;;;;;;9.85;4.38;;;;;;;22.75;54.24;100824.53;4987183;28;20108;-34
2023/09/20 01:23:06;;;;;;;10.32;4.28;;;;;;;22.75;54.26;100821.84;4986989;28;20046;-34
2023/09/20 01:25:35;;;;;;;8.95;4.05;;;;;;;22.75;54.16;100812.88;4987753;28;20431;-34
2023/09/20 01:28:03;;;;;;;7.32;3.92;;;;;;;22.74;54.26;100816.63;4991939;28;20350;-34
2023/09/20 01:30:32;;;;;;;8.38;3.58;;;;;;;22.75;54.17;100829.09;4990686;28;20086;-34
2023/09/20 01:33:00;;;;;;;8.23;3.58;;;;;;;22.74;53.91;100812.06;4983494;28;20054;-34
2023/09/20 01:35:29;;;;;;;6.82;3.42;;;;;;;22.74;54.11;100817.47;4988039;28;20438;-34
2023/09/20 01:37:56;;;;;;;7.75;3.53;;;;;;;22.74;54.38;100811.22;4983902;28;20346;-34
2023/09/20 01:40:25;;;;;;;8.98;3.53;;;;;;;22.73;53.85;100821.19;4983987;28;20149;-34
2023/09/20 01:42:53;;;;;;;7.75;3.67;;;;;;;22.73;54.07;100809.56;4984412;28;20053;-34
2023/09/20 01:45:21;;;;;;;6.88;3.95;;;;;;;22.73;54.25;100820.38;4983285;28;20174;-34
2023/09/20 01:47:53;;;;;;;9.27;3.83;;;;;;;22.72;54.27;100813.28;4989028;28;20054;-34
2023/09/20 01:50:23;;;;;;;7.13;3.72;;;;;;;22.71;54.30;100817.00;4981715;28;20101;-34
2023/09/20 01:52:52;;;;;;;7.20;3.78;;;;;;;22.72;54.37;100818.69;4985346;28;20109;-34
2023/09/20 01:55:24;;;;;;;8.15;4.07;;;;;;;22.71;54.17;100814.28;4986138;28;20431;-34
2023/09/20 01:57:52;;;;;;;7.05;3.75;;;;;;;22.70;54.24;100812.63;4986543;28;20047;-34
2023/09/20 02:00:36;;;;;;;7.75;3.60;;;;;;;22.70;54.00;100812.63;4991883;28;20134;-34
2023/09/20 02:03:11;;;;;;;;;;;;;;;22.69;54.47;100810.94;4983761;28;20340;-34
2023/09/20 02:05:38;;;;;;;6.55;3.22;;;;;;;22.73;54.21;100806.84;4986775;28;19930;-34
2023/09/20 02:08:08;;;;;;;10.57;2.90;;;;;;;22.71;53.97;100817.00;4984030;28;20061;-34
2023/09/20 02:10:36;;;;;;;7.28;3.70;;;;;;;22.70;54.43;100808.06;4983875;28;20093;-34
2023/09/20 02:13:04;;;;;;;6.07;3.45;;;;;;;22.69;54.33;100809.09;4983559;28;20436;-34
2023/09/20 02:15:31;;;;;;;7.57;3.25;;;;;;;22.70;53.98;100809.91;4986033;28;20100;-34
2023/09/20 02:17:58;;;;;;;8.93;3.55;;;;;;;22.69;54.02;100802.84;4987192;28;20117;-34
2023/09/20 02:20:25;;;;;;;7.93;3.42;;;;;;;22.69;54.51;100809.09;4985216;28;20081;-34
2023/09/20 02:22:53;;;;;;;7.55;3.80;;;;;;;22.69;53.96;100797.44;4983576;28;20169;-34
2023/09/20 02:25:22;;;;;;;5.25;3.15;;;;;;;22.69;54.36;100800.13;4986770;28;20490;-34
2023/09/20 02:27:50;;;;;;;8.20;4.05;;;;;;;22.69;54.08;100794.75;4984327;28;20109;-34
2023/09/20 02:30:24;;;;;;;5.40;2.50;;;;;;;22.67;54.43;100787.66;4988638;28;20078;-34
2023/09/20 02:32:52;;;;;;;7.40;3.35;;;;;;;22.68;54.12;100791.19;4985828;28;20068;-34
2023/09/20 02:35:20;;;;;;;8.00;3.30;;;;;;;22.67;54.15;100784.97;4983214;28;20049;-34
2023/09/20 02:37:48;;;;;;;11.43;3.38;;;;;;;22.67;53.98;100787.66;4986231;28;20056;-34
2023/09/20 02:40:15;;;;;;;6.82;3.30;;;;;;;22.68;54.38;100783.09;4983650;28;20058;-34
2023/09/20 02:42:48;;;;;;;5.57;2.92;;;;;;;22.67;54.06;100774.16;4985275;28;20046;-34
2023/09/20 02:45:22;;;;;;;6.65;3.05;;;;;;;22.67;54.38;100778.69;4986510;28;20097;-34
2023/09/20 02:47:49;;;;;;;6.95;2.90;;;;;;;22.67;53.84;100768.75;4983866;28;20046;-34
2023/09/20 02:50:18;;;;;;;7.05;3.30;;;;;;;22.66;54.14;100758.94;4984833;28;20053;-34
2023/09/20 02:52:47;;;;;;;7.45;3.22;;;;;;;22.66;54.10;100758.94;4983157;28;20153;-34
2023/09/20 02:55:19;;;;;;;7.00;2.80;;;;;;;22.65;54.13;100749.16;4986087;28;20047;-34
2023/09/20 02:57:50;;;;;;;6.27;2.87;;;;;;;22.64;53.99;100747.50;4988122;28;20046;-34
2023/09/20 03:00:21;;;;;;;7.45;2.90;;;;;;;22.65;53.91;100748.34;4984773;28;20046;-34
2023/09/20 03:02:50;;;;;;;7.10;2.78;;;;;;;22.64;54.32;100741.25;4982310;28;20046;-34
2023/09/20 03:05:19;;;;;;;6.53;3.28;;;;;;;22.63;54.18;100740.44;4982111;28;20494;-34
2023/09/20 03:07:47;;;;;;;4.97;2.72;;;;;;;22.63;54.30;100739.56;4984686;28;20054;-34
2023/09/20 03:10:15;;;;;;;7.07;2.83;;;;;;;22.62;54.24;100730.63;4987802;28;20501;-34
2023/09/20 03:12:43;;;;;;;8.20;3.17;;;;;;;22.62;53.94;100725.22;4985678;28;20042;-34
2023/09/20 03:15:11;;;;;;;8.63;3.00;;;;;;;22.61;54.29;100726.25;4987742;28;20510;-34
2023/09/20 03:17:39;;;;;;;6.40;2.63;;;;;;;22.60;54.08;100723.75;4986652;28;20088;-34
2023/09/20 03:20:16;;;;;;;8.57;2.97;;;;;;;22.61;54.10;100725.41;4985609;28;20047;-34
2023/09/20 03:22:43;;;;;;;6.75;3.35;;;;;;;22.59;54.08;100722.91;4984865;28;20050;-34
2023/09/20 03:25:09;;;;;;;4.50;2.88;;;;;;;22.60;54.07;100716.47;4984602;28;20050;-34
2023/09/20 03:27:38;;;;;;;6.47;2.50;;;;;;;22.59;54.30;100727.44;4984939;28;20046;-34
2023/09/20 03:30:10;;;;;;;4.40;2.58;;;;;;;22.59;54.30;100724.75;4991053;28;20108;-34
2023/09/20 03:32:40;;;;;;;7.88;2.83;;;;;;;22.58;54.48;100715.81;5017130;28;20082;-34
2023/09/20 03:35:12;;;;;;;6.28;2.85;;;;;;;22.58;54.29;100721.22;4980145;28;20070;-34
2023/09/20 03:37:40;;;;;;;7.70;3.03;;;;;;;22.57;54.51;100713.31;4986912;28;20331;-34
2023/09/20 03:40:10;;;;;;;5.65;2.70;;;;;;;22.57;54.31;100711.44;4984374;28;20058;-34
2023/09/20 03:42:39;;;;;;;6.93;3.20;;;;;;;22.57;54.22;100705.22;4985714;28;20387;-34
2023/09/20 03:45:16;;;;;;;5.90;2.47;;;;;;;22.55;54.51;100705.41;4981220;28;20050;-34
2023/09/20 03:47:45;;;;;;;5.60;3.08;;;;;;;22.56;54.24;100700.84;4982046;28;20050;-34
2023/09/20 03:50:12;;;;;;;6.28;2.40;;;;;;;22.55;54.51;100705.41;4984692;28;20069;-34
2023/09/20 03:52:40;;;;;;;5.05;2.50;;;;;;;22.54;54.47;100709.09;4983881;28;20101;-34
2023/09/20 03:55:07;;;;;;;7.35;2.40;;;;;;;22.55;54.15;100704.53;4983802;28;20058;-34
2023/09/20 03:57:34;;;;;;;5.05;2.50;;;;;;;22.54;54.52;100706.41;4982152;28;20051;-34
2023/09/20 04:00:06;;;;;;;3.60;2.25;;;;;;;22.54;54.54;100703.72;4988828;28;20335;-34
2023/09/20 04:02:40;;;;;;;6.95;2.47;;;;;;;22.55;54.46;100710.81;4984976;28;20478;-34
2023/09/20 04:05:14;;;;;;;5.05;2.60;;;;;;;22.55;54.23;100694.59;4986480;28;20054;-33
2023/09/20 04:07:52;;;;;;;6.78;3.25;;;;;;;22.55;54.49;100691.03;4983780;28;20050;-33
2023/09/20 04:10:19;;;;;;;5.10;2.72;;;;;;;22.53;54.35;100696.63;4982071;28;20057;-33
2023/09/20 04:12:47;;;;;;;4.93;2.33;;;;;;;22.53;54.21;100685.84;4981965;28;20113;-33
2023/09/20 04:15:14;;;;;;;4.90;2.50;;;;;;;22.51;54.22;100685.16;4985200;28;20648;-33
2023/09/20 04:17:42;;;;;;;5.55;2.47;;;;;;;22.52;54.43;100683.31;4983728;28;20051;-33
2023/09/20 04:20:11;;;;;;;5.22;2.45;;;;;;;22.53;54.23;100676.91;4986353;28;20061;-33
2023/09/20 04:22:41;;;;;;;6.75;2.40;;;;;;;22.51;54.11;100671.66;4984494;28;20058;-33
2023/09/20 04:25:10;;;;;;;5.88;2.42;;;;;;;22.51;54.07;100670.81;4983284;28;20082;-33
2023/09/20 04:27:38;;;;;;;4.72;2.67;;;;;;;22.51;54.12;100674.34;4982623;28;20074;-33
2023/09/20 04:30:07;;;;;;;5.65;2.90;;;;;;;22.50;54.17;100675.41;4983123;28;20094;-33
2023/09/20 04:32:36;;;;;;;7.32;2.53;;;;;;;22.50;54.39;100671.84;4984241;28;20382;-33
2023/09/20 04:35:04;;;;;;;5.82;2.65;;;;;;;22.50;54.34;100675.41;4988738;28;20054;-33
2023/09/20 04:37:31;;;;;;;6.07;2.53;;;;;;;22.49;54.34;100662.91;4987071;28;20073;-33
2023/09/20 04:39:58;;;;;;;3.78;2.25;;;;;;;22.49;54.11;100671.03;4983968;28;20113;-33
2023/09/20 04:42:26;;;;;;;4.28;2.17;;;;;;;22.49;54.17;100662.09;4982181;28;20104;-33
2023/09/20 04:44:52;;;;;;;4.90;1.90;;;;;;;22.49;54.44;100665.63;4981977;28;20057;-33
2023/09/20 04:47:19;;;;;;;5.68;2.45;;;;;;;22.48;54.21;100655.84;4978502;28;20056;-33
2023/09/20 04:49:46;;;;;;;4.03;1.90;;;;;;;22.49;54.21;100667.50;4977949;28;20092;-33
2023/09/20 04:52:15;;;;;;;3.55;2.17;;;;;;;22.49;54.58;100656.69;4980175;28;20054;-33
2023/09/20 04:54:44;;;;;;;8.68;2.60;;;;;;;22.48;54.52;100663.97;4981308;28;20406;-33
2023/09/20 04:57:14;;;;;;;4.85;2.40;;;;;;;22.49;54.62;100662.09;4984982;28;20070;-33
2023/09/20 04:59:40;;;;;;;6.25;2.28;;;;;;;22.48;54.54;100663.13;4981107;28;20058;-33
2023/09/20 05:02:08;;;;;;;6.25;2.47;;;;;;;22.47;54.55;100667.66;4982017;28;20039;-33
2023/09/20 05:04:35;;;;;;;7.75;3.13;;;;;;;22.48;54.85;100660.41;4977777;28;20046;-33
2023/09/20 05:07:05;;;;;;;7.50;3.00;;;;;;;22.47;54.39;100662.25;4987299;28;20073;-33
2023/09/20 05:09:34;;;;;;;6.93;2.97;;;;;;;22.47;54.77;100664.13;4987753;28;20053;-33
2023/09/20 05:12:02;;;;;;;11.05;4.55;;;;;;;22.47;54.69;100672.22;4983672;28;20075;-33
2023/09/20 05:14:29;;;;;;;8.57;2.97;;;;;;;22.47;54.41;100672.22;4981825;28;20101;-33
2023/09/20 05:16:56;;;;;;;8.35;3.75;;;;;;;22.46;54.45;100673.25;4977939;28;20057;-34
2023/09/20 05:19:25;;;;;;;9.55;3.90;;;;;;;22.46;54.30;100678.66;4983965;28;20582;-33
2023/09/20 05:21:52;;;;;;;9.55;4.10;;;;;;;22.46;54.10;100678.66;4981789;28;20133;-33
2023/09/20 05:24:19;;;;;;;12.05;4.68;;;;;;;22.46;54.27;100670.56;4978245;28;20050;-33
2023/09/20 05:26:45;;;;;;;13.27;5.15;;;;;;;22.45;54.71;100671.59;4977384;28;20054;-33
2023/09/20 05:29:12;;;;;;;11.52;4.10;;;;;;;22.45;54.44;100667.03;4978317;28;20046;-33
2023/09/20 05:31:38;;;;;;;11.40;4.75;;;;;;;22.44;54.52;100657.25;4982432;28;20047;-33
2023/09/20 05:34:05;;;;;;;11.30;4.50;;;;;;;22.44;54.43;100665.34;4979612;28;20105;-33
2023/09/20 05:36:33;;;;;;;8.00;3.92;;;;;;;22.43;54.29;100660.94;4985840;28;20051;-33
2023/09/20 05:38:59;;;;;;;9.80;4.47;;;;;;;22.43;54.55;100660.94;4980316;28;20062;-34
2023/09/20 05:41:27;;;;;;;14.50;4.40;;;;;;;22.42;54.54;100660.13;4981496;28;20102;-33
2023/09/20 05:43:54;;;;;;;8.48;3.70;;;;;;;22.42;54.50;100665.53;4987847;28;20119;-33
2023/09/20 05:46:24;;;;;;;10.85;4.00;;;;;;;22.42;54.40;100657.41;4980284;28;20135;-33
2023/09/20 05:48:52;;;;;;;9.77;4.05;;;;;;;22.42;54.16;100656.59;4983736;28;20101;-33
2023/09/20 05:51:20;;;;;;;8.75;3.75;;;;;;;22.42;54.25;100657.41;4978173;28;20046;-33
2023/09/20 05:53:47;;;;;;;7.68;3.65;;;;;;;22.42;54.07;100651.19;4985343;28;20050;-33
2023/09/20 05:56:18;;;;;;;9.02;3.85;;;;;;;22.42;53.83;100656.59;4978568;28;20502;-33
2023/09/20 05:58:45;;;;;;;7.25;3.50;;;;;;;22.42;54.12;100656.59;4981185;28;20054;-33
2023/09/20 06:01:13;;;;;;;9.45;3.70;;;;;;;22.41;54.00;100658.47;4985910;28;20054;-33
2023/09/20 06:03:40;;;;;;;6.95;3.20;;;;;;;22.41;54.00;100658.47;4984441;28;20478;-34
2023/09/20 06:06:07;;;;;;;7.88;3.88;;;;;;;22.42;53.93;100656.59;4985332;28;20051;-34
2023/09/20 06:08:35;;;;;;;6.43;2.97;;;;;;;22.42;53.63;100662.00;4986585;28;20055;-34
2023/09/20 06:11:04;;;;;;;10.95;3.75;;;;;;;22.41;53.65;100665.72;4989819;28;20051;-34
2023/09/20 06:13:32;;;;;;;9.38;3.78;;;;;;;22.42;53.96;100662.00;4987421;28;20134;-34
2023/09/20 06:16:05;;;;;;;5.97;3.33;;;;;;;22.41;53.69;100655.75;5016779;28;20061;-34
2023/09/20 06:18:32;;;;;;;9.18;3.58;;;;;;;22.41;53.95;100655.75;4982942;28;21390;-34
2023/09/20 06:21:00;;;;;;;5.50;2.97;;;;;;;22.41;53.92;100658.47;4982094;28;20068;-34
2023/09/20 06:23:27;;;;;;;6.95;3.10;;;;;;;22.40;53.90;100656.78;4983948;28;20058;-34
2023/09/20 06:25:54;;;;;;;6.80;2.75;;;;;;;22.41;53.51;100663.03;4986069;28;20101;-34
2023/09/20 06:28:20;;;;;;;8.88;3.53;;;;;;;22.41;53.91;100661.16;4983550;28;20149;-34
2023/09/20 06:30:47;;;;;;;5.57;2.83;;;;;;;22.41;53.48;100661.16;4982179;28;20043;-34
2023/09/20 06:33:14;;;;;;;6.85;2.88;;;;;;;22.41;53.74;100663.03;4986378;28;20057;-34
2023/09/20 06:35:43;;;;;;;8.18;3.17;;;;;;;22.41;53.80;100660.31;4985801;28;20070;-34
2023/09/20 06:38:10;;;;;;;8.20;2.85;;;;;;;22.40;53.68;100659.50;4979641;28;20043;-34
2023/09/20 06:40:40;;;;;;;6.57;2.25;;;;;;;22.40;53.71;100659.50;4981774;28;20047;-34
2023/09/20 06:43:07;;;;;;;7.22;3.35;;;;;;;22.41;53.39;100657.63;4982922;28;20046;-34
2023/09/20 06:45:35;;;;;;;6.60;3.00;;;;;;;22.40;53.65;100659.50;4990573;28;20069;-34
2023/09/20 06:48:02;;;;;;;5.85;2.60;;;;;;;22.39;54.22;100663.22;4989821;28;20046;-34
2023/09/20 06:50:30;;;;;;;5.88;2.22;;;;;;;22.40;53.52;100673.00;4986023;28;20051;-34
2023/09/20 06:52:57;;;;;;;8.45;2.67;;;;;;;22.40;53.61;100662.19;4980913;28;20125;-34
2023/09/20 06:55:25;;;;;;;8.73;2.60;;;;;;;22.41;53.60;100668.44;4984224;28;20568;-34
2023/09/20 06:57:52;;;;;;;7.85;3.15;;;;;;;22.41;53.34;100663.03;4979693;28;20047;-34
2023/09/20 07:00:38;;;;;;;4.63;2.58;;;;;;;22.40;53.41;100670.28;4983077;28;20062;-34
2023/09/20 07:03:05;;;;;;;3.92;2.20;;;;;;;22.42;53.20;100662.00;4980081;28;20046;-34
2023/09/20 07:05:32;;;;;;;5.63;2.30;;;;;;;22.40;53.50;100654.09;4987353;28;20056;-34
2023/09/20 07:08:00;;;;;;;4.88;2.50;;;;;;;22.40;53.39;100659.50;4989214;28;20157;-34
2023/09/20 07:10:31;;;;;;;5.13;2.13;;;;;;;22.40;53.45;100658.66;4988552;28;20039;-34
2023/09/20 07:12:58;;;;;;;7.43;2.22;;;;;;;22.40;53.28;100653.25;4979601;28;20046;-34
2023/09/20 07:15:25;;;;;;;5.40;2.45;;;;;;;22.40;53.43;100651.38;4978512;28;20496;-34
2023/09/20 07:18:07;;;;;;;5.43;2.00;;;;;;;22.40;53.34;100658.66;4978647;28;20043;-34
2023/09/20 07:20:36;;;;;;;6.22;2.53;;;;;;;22.42;53.50;100660.13;4981503;28;20054;-34
2023/09/20 07:23:03;;;;;;;3.58;1.85;;;;;;;22.41;53.45;100658.47;4976468;28;20158;-34
2023/09/20 07:25:31;;;;;;;4.40;2.08;;;;;;;22.41;53.43;100654.91;4977635;28;20055;-34
2023/09/20 07:27:59;;;;;;;4.95;2.45;;;;;;;22.41;53.25;100666.56;4988916;28;20096;-34
2023/09/20 07:30:31;;;;;;;5.25;2.58;;;;;;;22.42;53.13;100667.38;4976573;28;20350;-34
2023/09/20 07:33:02;;;;;;;3.40;1.70;;;;;;;22.43;53.38;100682.56;4977816;28;20046;-34
2023/09/20 07:35:52;;;;;;;6.35;2.30;;;;;;;22.43;53.30;100677.16;4986164;28;20378;-34
2023/09/20 07:38:27;;;;;;;6.63;2.70;;;;;;;22.44;52.96;100675.31;4982410;28;20046;-34
2023/09/20 07:41:17;;;;;;;5.43;1.98;;;;;;;22.41;53.76;100674.66;4984189;28;20050;-34
2023/09/20 07:43:45;;;;;;;4.50;2.00;;;;;;;22.43;53.38;100669.06;4982216;28;20054;-34
2023/09/20 07:46:13;;;;;;;8.65;2.45;;;;;;;22.44;53.11;100673.47;4980305;28;20096;-34
2023/09/20 07:48:48;;;;;;;6.32;2.17;;;;;;;22.43;53.46;100682.56;4981582;28;20058;-34
2023/09/20 07:51:20;;;;;;;7.80;2.30;;;;;;;22.43;53.23;100682.56;4977868;28;20431;-34
2023/09/20 07:53:49;;;;;;;4.07;2.13;;;;;;;22.43;52.95;100679.88;4984531;28;20100;-34
2023/09/20 07:56:17;;;;;;;4.72;1.80;;;;;;;22.44;53.26;100678.03;5034131;28;20046;-34
2023/09/20 07:58:44;;;;;;;5.15;2.28;;;;;;;22.43;53.35;100677.16;4981430;28;20054;-34
2023/09/20 08:01:21;;;;;;;4.10;2.20;;;;;;;22.43;53.07;100685.25;4983230;28;20551;-34
2023/09/20 08:03:53;;;;;;;3.55;1.90;;;;;;;22.44;53.31;100678.84;4980279;28;20042;-34
2023/09/20 08:06:24;;;;;;;4.55;2.00;;;;;;;22.44;53.17;100681.56;4979858;28;20079;-34
2023/09/20 08:08:51;;;;;;;4.07;1.80;;;;;;;22.44;53.31;100686.13;4982859;28;20096;-34
2023/09/20 08:11:18;;;;;;;2.85;1.77;;;;;;;22.44;53.22;100689.66;4985765;28;20082;-34
2023/09/20 08:13:49;;;;;;;6.00;1.90;;;;;;;22.45;53.26;100694.03;4984230;28;20073;-34
2023/09/20 08:16:16;;;;;;;3.38;1.60;;;;;;;22.45;53.30;100696.72;4985518;28;20065;-34
2023/09/20 08:21:29;;;;;;;3.88;2.00;;;;;;;22.46;53.09;100702.97;4984575;28;20434;-34
2023/09/20 09:00:19;;;;;;;9.32;1.90;;;;;;;22.46;53.26;100716.47;5013009;28;20054;-34
2023/09/20 09:02:51;;;;;;;4.68;2.25;;;;;;;22.46;53.59;100711.06;4983181;28;20339;-34
2023/09/20 09:05:20;;;;;;;6.82;2.50;;;;;;;22.47;53.57;100716.28;4979644;28;20046;-34
2023/09/20 09:07:48;;;;;;;4.60;2.20;;;;;;;22.46;53.37;100702.97;4983750;28;20050;-34
2023/09/20 09:10:15;;;;;;;4.90;2.22;;;;;;;22.47;53.43;100704.63;4982224;28;20055;-34
2023/09/20 09:12:42;;;;;;;5.50;2.17;;;;;;;22.47;53.60;100712.75;4979579;28;20055;-34
2023/09/20 09:15:11;;;;;;;8.40;2.30;;;;;;;22.47;53.67;100707.34;4978271;28;20146;-34
2023/09/20 09:17:40;;;;;;;4.38;2.38;;;;;;;22.47;53.58;100704.63;4980846;28;20476;-34
2023/09/20 09:20:10;;;;;;;4.10;1.98;;;;;;;22.47;53.49;100697.38;4984766;28;20101;-34
2023/09/20 09:22:38;;;;;;;4.93;2.47;;;;;;;22.46;53.60;100701.09;4988040;28;20096;-34
2023/09/20 09:25:11;;;;;;;8.52;3.17;;;;;;;22.48;53.27;100703.63;4983315;28;20405;-34
2023/09/20 09:27:39;;;;;;;3.17;1.80;;;;;;;22.47;53.47;100689.25;4989061;28;20038;-34
2023/09/20 09:30:12;;;;;;;5.57;1.98;;;;;;;22.47;53.31;100700.06;4983744;28;20050;-34
2023/09/20 09:32:47;;;;;;;4.30;1.80;;;;;;;22.47;53.32;100705.47;4988062;28;20080;-34
2023/09/20 09:35:18;;;;;;;6.95;2.08;;;;;;;22.48;53.44;100701.78;4991891;28;20147;-34
2023/09/20 09:38:01;;;;;;;4.15;1.85;;;;;;;22.48;53.19;100695.53;5015282;28;20335;-34
2023/09/20 09:40:29;;;;;;;6.93;2.50;;;;;;;22.47;53.42;100691.97;4987395;28;20430;-34
2023/09/20 09:43:11;;;;;;;3.97;1.85;;;;;;;22.46;53.55;100697.56;4987281;28;20054;-34
2023/09/20 09:45:38;;;;;;;5.75;2.17;;;;;;;22.47;53.32;100691.13;4984011;28;20051;-34
2023/09/20 09:48:06;;;;;;;5.63;2.03;;;;;;;22.47;53.43;100683.03;4989347;28;20351;-34
2023/09/20 09:50:38;;;;;;;4.60;1.90;;;;;;;22.48;53.31;100687.44;4990181;28;20051;-33
2023/09/20 09:53:08;;;;;;;5.72;1.95;;;;;;;22.47;53.28;100681.16;4991420;28;20433;-34
2023/09/20 09:55:37;;;;;;;3.05;1.63;;;;;;;22.48;53.38;100679.31;4991356;28;20300;-34
2023/09/20 09:58:04;;;;;;;5.47;2.55;;;;;;;22.48;53.43;100679.31;4987783;28;20046;-34
2023/09/20 10:00:33;;;;;;;5.68;2.13;;;;;;;22.48;52.92;100690.97;4985231;28;20047;-34
2023/09/20 10:03:18;;;;;;;3.33;1.85;;;;;;;22.48;53.49;100680.16;4984391;28;20061;-34
2023/09/20 10:05:46;;;;;;;4.07;2.10;;;;;;;22.48;53.54;100669.34;4980641;28;20050;-34
2023/09/20 10:08:17;;;;;;;7.45;2.00;;;;;;;22.48;52.99;100677.47;4982197;28;20439;-34
2023/09/20 10:10:44;;;;;;;2.58;1.50;;;;;;;22.48;53.23;100674.75;4980023;28;20088;-34
2023/09/20 10:13:12;;;;;;;4.82;2.15;;;;;;;22.48;53.08;100672.06;4984527;28;20351;-34
2023/09/20 10:15:43;;;;;;;4.30;1.88;;;;;;;22.48;53.31;100673.94;4980875;28;20501;-34
2023/09/20 10:18:11;;;;;;;3.00;1.60;;;;;;;22.50;53.35;100674.56;4985239;28;20086;-34
2023/09/20 10:20:58;;;;;;;4.80;1.73;;;;;;;22.49;53.09;100673.72;5013750;28;20046;-34
2023/09/20 10:23:26;;;;;;;3.28;1.90;;;;;;;22.53;53.40;100674.19;4993772;28;20077;-34
2023/09/20 10:25:56;;;;;;;4.28;1.50;;;;;;;22.51;53.14;100671.66;4995376;28;20151;-34
2023/09/20 10:28:24;;;;;;;6.53;2.22;;;;;;;22.53;53.11;100669.63;4985383;28;20116;-34
2023/09/20 10:31:04;;;;;;;4.22;2.00;;;;;;;22.53;53.37;100648.00;4987785;28;20047;-34
2023/09/20 10:33:44;;;;;;;5.47;2.17;;;;;;;22.55;53.16;100658.63;4982888;28;20105;-34
2023/09/20 10:36:22;;;;;;;3.92;1.83;;;;;;;22.57;53.32;100653.88;4979329;28;20093;-34
2023/09/20 10:39:09;;;;;;;6.47;2.20;;;;;;;22.57;53.23;100652.00;4985925;28;20065;-34
2023/09/20 10:41:40;;;;;;;4.20;1.88;;;;;;;22.59;53.50;100641.88;4979016;28;20053;-34
2023/09/20 10:44:07;;;;;;;3.00;1.52;;;;;;;22.60;53.20;100638.13;4984885;28;20061;-34
2023/09/20 10:46:37;;;;;;;5.38;2.00;;;;;;;22.61;53.43;100633.56;4987890;28;20058;-34
2023/09/20 10:49:06;;;;;;;2.97;1.58;;;;;;;22.63;53.13;100621.56;4979294;28;20050;-34
2023/09/20 10:51:39;;;;;;;7.38;2.47;;;;;;;22.64;53.20;100619.69;4981433;28;20490;-34
2023/09/20 10:54:22;;;;;;;5.55;1.80;;;;;;;22.64;53.22;100623.22;4986133;28;20061;-34
2023/09/20 10:56:52;;;;;;;4.38;2.00;;;;;;;22.69;53.02;100628.06;4987670;28;20046;-34
2023/09/20 10:59:25;;;;;;;2.35;1.45;;;;;;;22.70;53.06;100634.28;4987748;28;20046;-34
2023/09/20 11:01:53;;;;;;;3.30;1.92;;;;;;;22.72;53.28;100624.16;4981626;28;20081;-34
2023/09/20 11:04:19;;;;;;;4.22;1.75;;;;;;;22.74;53.53;100627.47;4985331;28;20051;-34
2023/09/20 11:06:50;;;;;;;4.40;2.08;;;;;;;22.74;53.10;100633.72;4985018;28;20054;-34
2023/09/20 11:09:17;;;;;;;5.35;1.73;;;;;;;22.77;53.58;100632.50;4985688;28;20043;-34
2023/09/20 11:11:44;;;;;;;6.63;1.67;;;;;;;22.76;52.96;100625.44;4981649;28;20050;-34
2023/09/20 11:14:12;;;;;;;4.18;2.08;;;;;;;22.77;53.18;100614.44;4985425;28;20058;-34
2023/09/20 11:16:43;;;;;;;4.07;1.83;;;;;;;22.77;53.19;100617.13;4982988;28;20083;-34
2023/09/20 11:19:11;;;;;;;4.30;1.92;;;;;;;22.79;53.46;100609.66;4982294;28;20065;-34
2023/09/20 11:21:42;;;;;;;6.45;2.28;;;;;;;22.79;53.32;100606.97;4985538;28;20530;-34
2023/09/20 11:24:10;;;;;;;4.40;1.95;;;;;;;22.82;53.42;100611.16;4983207;28;20458;-34
2023/09/20 11:26:47;;;;;;;3.22;1.77;;;;;;;22.84;53.22;100609.94;4984494;28;20051;-34
2023/09/20 11:29:16;;;;;;;4.07;1.90;;;;;;;22.87;53.03;100608.72;4988444;28;20042;-34
2023/09/20 11:31:50;;;;;;;4.32;1.90;;;;;;;22.89;52.99;100606.66;4983157;28;20056;-34
2023/09/20 11:34:19;;;;;;;2.88;1.85;;;;;;;22.93;52.99;100609.84;4990142;28;20099;-34
2023/09/20 11:36:47;;;;;;;4.85;2.30;;;;;;;22.95;52.99;100611.31;4983588;28;20447;-34
2023/09/20 11:39:17;;;;;;;3.58;1.75;;;;;;;22.97;52.75;100611.97;4981691;28;20050;-34
2023/09/20 11:41:45;;;;;;;3.95;1.83;;;;;;;23.00;53.02;100610.78;4988050;28;20058;-34
2023/09/20 11:44:16;;;;;;;3.17;1.70;;;;;;;23.03;52.64;100622.00;4980396;28;20050;-34
2023/09/20 11:46:52;;;;;;;3.53;1.88;;;;;;;23.04;52.44;100604.78;4980003;28;20078;-34
2023/09/20 11:49:20;;;;;;;4.63;1.88;;;;;;;23.06;52.92;100613.53;4983933;28;20161;-34
2023/09/20 11:51:49;;;;;;;3.53;1.80;;;;;;;23.08;52.35;100619.59;5017260;28;20382;-34
2023/09/20 11:54:15;;;;;;;3.15;1.88;;;;;;;23.10;52.54;100606.69;4984534;28;20093;-34
2023/09/20 11:56:47;;;;;;;4.50;1.85;;;;;;;23.09;52.62;100602.34;4984889;28;20105;-34
2023/09/20 11:59:18;;;;;;;3.45;1.70;;;;;;;23.11;52.58;100591.31;4987589;28;20065;-34
2023/09/20 12:01:45;;;;;;;4.65;2.17;;;;;;;23.12;52.55;100591.13;5014785;28;20054;-34
2023/09/20 12:04:13;;;;;;;5.68;2.67;;;;;;;23.13;52.08;100598.22;4987171;28;20076;-34
2023/09/20 12:06:40;;;;;;;3.10;1.83;;;;;;;23.15;52.49;100596.13;4980842;28;20085;-34
2023/09/20 12:09:07;;;;;;;3.95;1.92;;;;;;;23.17;52.33;100590.56;4982418;28;20055;-33
2023/09/20 12:11:35;;;;;;;3.83;1.67;;;;;;;23.21;51.82;100591.00;4980230;28;20050;-34
2023/09/20 12:14:02;;;;;;;2.95;2.10;;;;;;;23.23;51.92;100584.34;4981976;28;20046;-34